createdAt,value
2018-09-04T00:00:52.631Z,9.47
2018-09-04T00:03:21.626Z,8.13
2018-09-04T00:05:50.463Z,8.53
2018-09-04T00:08:19.560Z,8.43
2018-09-04T00:10:48.375Z,8.07
2018-09-04T00:13:17.231Z,8.07
2018-09-04T00:15:46.051Z,9.03
2018-09-04T00:18:14.885Z,8.63
2018-09-04T00:20:43.882Z,11.43
2018-09-04T00:23:12.743Z,8.33
2018-09-04T00:25:41.594Z,8.97
2018-09-04T00:28:10.423Z,8.80
2018-09-04T00:30:39.251Z,7.73
2018-09-04T00:33:08.098Z,10.40
2018-09-04T00:35:36.913Z,12.23
2018-09-04T00:38:05.747Z,8.90
2018-09-04T00:40:35.281Z,8.17
2018-09-04T00:43:04.255Z,7.33
2018-09-04T00:45:33.164Z,10.10
2018-09-04T00:48:01.994Z,8.20
2018-09-04T00:50:30.927Z,8.70
2018-09-04T00:52:59.782Z,11.80
2018-09-04T00:55:28.621Z,8.80
2018-09-04T00:57:57.494Z,9.00
2018-09-04T01:00:28.459Z,9.43
2018-09-04T01:02:58.142Z,11.47
2018-09-04T01:05:27.330Z,8.93
2018-09-04T01:07:56.373Z,10.43
2018-09-04T01:10:25.211Z,9.37
2018-09-04T01:12:54.118Z,12.40
2018-09-04T01:15:22.974Z,9.77
2018-09-04T01:17:51.821Z,9.13
2018-09-04T01:20:20.755Z,13.20
2018-09-04T01:22:49.570Z,9.87
2018-09-04T01:25:18.435Z,8.63
2018-09-04T01:27:47.252Z,10.00
2018-09-04T01:30:16.177Z,8.43
2018-09-04T01:32:45.002Z,10.70
2018-09-04T01:35:13.843Z,8.27
2018-09-04T01:37:42.659Z,8.03
2018-09-04T01:40:11.491Z,9.33
2018-09-04T01:42:40.706Z,10.07
2018-09-04T01:45:09.543Z,8.77
2018-09-04T01:47:38.450Z,13.60
2018-09-04T01:50:07.318Z,9.83
2018-09-04T01:52:36.164Z,9.17
2018-09-04T01:55:05.029Z,9.60
2018-09-04T01:57:33.890Z,10.77
2018-09-04T02:00:02.797Z,10.03
2018-09-04T02:05:34.667Z,11.07
2018-09-04T02:08:03.639Z,9.97
2018-09-04T02:10:32.451Z,10.43
2018-09-04T02:13:01.370Z,9.70
2018-09-04T02:15:30.330Z,10.70
2018-09-04T02:17:59.447Z,9.90
2018-09-04T02:20:28.347Z,12.30
2018-09-04T02:22:57.247Z,9.70
2018-09-04T02:25:26.075Z,9.03
2018-09-04T02:27:54.878Z,9.87
2018-09-04T02:30:24.786Z,8.10
2018-09-04T02:32:53.623Z,8.47
2018-09-04T02:35:22.424Z,12.23
2018-09-04T02:37:51.310Z,8.40
2018-09-04T02:40:20.102Z,8.30
2018-09-04T02:42:48.963Z,7.67
2018-09-04T02:45:17.814Z,10.40
2018-09-04T02:47:46.659Z,6.77
2018-09-04T02:50:15.431Z,6.90
2018-09-04T02:52:44.226Z,6.07
2018-09-04T02:55:13.926Z,7.13
2018-09-04T02:57:42.742Z,7.37
2018-09-04T03:00:11.631Z,7.30
2018-09-04T03:02:40.574Z,8.03
2018-09-04T03:05:09.506Z,8.67
2018-09-04T03:07:38.671Z,8.10
2018-09-04T03:10:08.419Z,7.73
2018-09-04T03:12:37.291Z,8.30
2018-09-04T03:15:06.234Z,7.23
2018-09-04T03:17:35.144Z,7.63
2018-09-04T03:20:04.027Z,7.87
2018-09-04T03:22:32.843Z,7.50
2018-09-04T03:25:01.671Z,7.87
2018-09-04T03:27:30.474Z,7.97
2018-09-04T03:29:59.295Z,8.20
2018-09-04T03:32:28.083Z,7.53
2018-09-04T03:34:57.014Z,7.90
2018-09-04T03:37:25.837Z,7.70
2018-09-04T03:39:54.628Z,7.60
2018-09-04T03:42:23.519Z,6.97
2018-09-04T03:44:52.293Z,7.63
2018-09-04T03:47:21.153Z,6.73
2018-09-04T03:49:50.543Z,8.73
2018-09-04T03:52:19.385Z,8.23
2018-09-04T03:54:48.232Z,8.70
2018-09-04T03:57:17.067Z,8.30
2018-09-04T03:59:45.931Z,8.93
2018-09-04T04:02:15.733Z,8.57
2018-09-04T04:04:44.534Z,8.47
2018-09-04T04:07:14.084Z,7.80
2018-09-04T04:09:43.210Z,7.93
2018-09-04T04:12:12.034Z,8.30
2018-09-04T04:14:40.947Z,8.20
2018-09-04T04:17:09.952Z,7.83
2018-09-04T04:19:38.755Z,8.23
2018-09-04T04:22:07.776Z,8.17
2018-09-04T04:24:36.603Z,7.33
2018-09-04T04:27:05.478Z,7.30
2018-09-04T04:29:34.432Z,7.50
2018-09-04T04:32:03.328Z,8.68
2018-09-04T04:34:32.167Z,8.03
2018-09-04T04:37:01.071Z,8.40
2018-09-04T04:39:30.007Z,8.00
2018-09-04T04:41:59.148Z,8.00
2018-09-04T04:44:27.987Z,7.97
2018-09-04T04:46:56.877Z,6.93
2018-09-04T04:49:25.724Z,7.30
2018-09-04T04:51:54.555Z,7.27
2018-09-04T04:54:23.366Z,8.50
2018-09-04T04:56:52.175Z,7.83
2018-09-04T04:59:20.979Z,7.13
2018-09-04T05:01:49.790Z,7.10
2018-09-04T05:04:18.583Z,7.47
2018-09-04T05:06:47.475Z,6.97
2018-09-04T05:09:16.363Z,6.87
2018-09-04T05:11:45.495Z,8.43
2018-09-04T05:14:14.278Z,6.80
2018-09-04T05:16:43.099Z,7.33
2018-09-04T05:19:11.899Z,6.53
2018-09-04T05:21:40.715Z,7.63
2018-09-04T05:24:09.526Z,7.23
2018-09-04T05:26:38.355Z,7.67
2018-09-04T05:29:07.170Z,7.03
2018-09-04T05:31:41.232Z,7.70
2018-09-04T05:34:10.114Z,6.97
2018-09-04T05:36:38.994Z,6.70
2018-09-04T05:39:09.939Z,6.77
2018-09-04T05:41:38.779Z,6.00
2018-09-04T05:44:07.675Z,8.00
2018-09-04T05:46:39.167Z,9.93
2018-09-04T05:49:08.356Z,9.43
2018-09-04T05:51:37.171Z,9.03
2018-09-04T05:54:06.040Z,8.10
2018-09-04T05:56:35.250Z,8.40
2018-09-04T05:59:04.139Z,8.80
2018-09-04T06:01:33.059Z,7.70
2018-09-04T06:04:01.850Z,9.07
2018-09-04T06:06:30.668Z,9.10
2018-09-04T06:08:59.474Z,9.17
2018-09-04T06:11:28.262Z,9.13
2018-09-04T06:13:57.487Z,9.70
2018-09-04T06:16:26.291Z,9.47
2018-09-04T06:18:55.126Z,9.10
2018-09-04T06:21:23.935Z,8.13
2018-09-04T06:23:52.765Z,9.10
2018-09-04T06:26:21.654Z,7.93
2018-09-04T06:28:50.496Z,8.70
2018-09-04T06:31:19.278Z,8.40
2018-09-04T06:33:48.095Z,8.10
2018-09-04T06:36:16.967Z,7.40
2018-09-04T06:38:45.769Z,7.90
2018-09-04T06:41:14.655Z,8.23
2018-09-04T06:43:43.493Z,8.40
2018-09-04T06:46:12.328Z,8.87
2018-09-04T06:48:41.186Z,8.97
2018-09-04T06:51:09.994Z,7.90
2018-09-04T06:53:38.811Z,7.40
2018-09-04T06:56:07.664Z,7.60
2018-09-04T06:58:36.667Z,8.17
2018-09-04T07:01:05.611Z,8.43
2018-09-04T07:03:34.418Z,7.40
2018-09-04T07:06:03.246Z,7.50
2018-09-04T07:08:32.070Z,7.20
2018-09-04T07:11:00.887Z,6.73
2018-09-04T07:13:29.735Z,7.20
2018-09-04T07:15:58.925Z,6.70
2018-09-04T07:18:27.762Z,6.67
2018-09-04T07:20:56.632Z,7.70
2018-09-04T07:23:25.551Z,7.17
2018-09-04T07:25:54.346Z,6.33
2018-09-04T07:28:23.171Z,6.77
2018-09-04T07:30:52.081Z,7.50
2018-09-04T07:33:21.228Z,6.80
2018-09-04T07:35:50.043Z,6.77
2018-09-04T07:38:18.936Z,6.90
2018-09-04T07:40:47.735Z,7.37
2018-09-04T07:43:16.543Z,7.37
2018-09-04T07:45:45.371Z,6.60
2018-09-04T07:48:14.259Z,7.97
2018-09-04T07:50:43.068Z,7.60
2018-09-04T07:53:11.925Z,7.27
2018-09-04T07:55:40.743Z,6.83
2018-09-04T07:58:09.573Z,7.27
2018-09-04T08:00:38.403Z,7.73
2018-09-04T08:03:07.732Z,7.40
2018-09-04T08:05:36.664Z,7.33
2018-09-04T08:08:05.553Z,7.20
2018-09-04T08:10:35.081Z,7.43
2018-09-04T08:13:06.233Z,7.53
2018-09-04T08:15:35.539Z,6.97
2018-09-04T08:18:05.263Z,7.50
2018-09-04T08:20:34.344Z,6.77
2018-09-04T08:23:03.751Z,7.37
2018-09-04T08:25:33.177Z,6.13
2018-09-04T08:28:05.268Z,7.23
2018-09-04T08:30:35.454Z,6.93
2018-09-04T08:33:11.905Z,7.50
2018-09-04T08:35:43.104Z,7.47
2018-09-04T08:38:13.778Z,7.37
2018-09-04T08:40:43.970Z,7.37
2018-09-04T08:43:13.031Z,6.90
2018-09-04T08:45:42.109Z,7.27
2018-09-04T08:48:16.284Z,7.47
2018-09-04T08:50:45.470Z,7.00
2018-09-04T08:53:19.791Z,6.63
2018-09-04T08:55:53.311Z,6.97
2018-09-04T08:58:23.322Z,6.60
2018-09-04T09:00:52.343Z,7.10
2018-09-04T09:03:21.388Z,6.90
2018-09-04T09:05:51.418Z,6.40
2018-09-04T09:08:20.332Z,6.00
2018-09-04T09:10:49.125Z,5.87
2018-09-04T09:13:17.929Z,6.40
2018-09-04T09:15:46.712Z,5.90
2018-09-04T09:18:16.072Z,5.60
2018-09-04T09:20:45.271Z,5.40
2018-09-04T09:23:14.127Z,6.10
2018-09-04T09:25:43.057Z,6.00
2018-09-04T09:28:11.851Z,5.30
2018-09-04T09:30:40.667Z,4.70
2018-09-04T09:33:09.486Z,4.67
2018-09-04T09:35:38.307Z,4.30
2018-09-04T09:38:07.122Z,4.60
2018-09-04T09:40:36.012Z,4.83
2018-09-04T09:43:05.136Z,5.10
2018-09-04T09:45:33.942Z,4.90
2018-09-04T09:48:02.776Z,4.90
2018-09-04T09:50:31.619Z,5.10
2018-09-04T09:53:00.593Z,4.90
2018-09-04T09:55:29.292Z,4.60
2018-09-04T09:57:58.089Z,4.73
2018-09-04T10:00:32.143Z,4.17
2018-09-04T10:03:04.081Z,4.30
2018-09-04T10:05:33.418Z,5.10
2018-09-04T10:08:02.408Z,5.30
2018-09-04T10:10:31.151Z,4.50
2018-09-04T10:12:59.950Z,4.43
2018-09-04T10:15:28.912Z,4.77
2018-09-04T10:17:57.722Z,5.20
2018-09-04T10:20:27.020Z,4.27
2018-09-04T10:22:55.855Z,4.47
2018-09-04T10:25:24.667Z,4.17
2018-09-04T10:27:53.466Z,4.63
2018-09-04T10:30:22.278Z,5.17
2018-09-04T10:32:51.527Z,3.93
2018-09-04T10:35:20.951Z,4.17
2018-09-04T10:37:50.266Z,4.37
2018-09-04T10:40:24.233Z,4.20
2018-09-04T10:42:53.063Z,4.00
2018-09-04T10:45:27.106Z,4.23
2018-09-04T10:47:56.402Z,4.20
2018-09-04T10:50:25.209Z,3.93
2018-09-04T10:52:54.027Z,4.43
2018-09-04T10:55:22.853Z,4.20
2018-09-04T10:57:51.688Z,4.17
2018-09-04T11:00:20.508Z,3.80
2018-09-04T11:02:49.400Z,3.97
2018-09-04T11:05:18.799Z,3.73
2018-09-04T11:07:47.639Z,4.03
2018-09-04T11:10:16.586Z,4.13
2018-09-04T11:12:45.488Z,4.20
2018-09-04T11:15:14.439Z,4.10
2018-09-04T11:17:43.235Z,4.60
2018-09-04T11:20:12.176Z,4.50
2018-09-04T11:22:41.405Z,4.47
2018-09-04T11:25:10.212Z,4.63
2018-09-04T11:27:39.084Z,4.20
2018-09-04T11:30:10.102Z,4.10
2018-09-04T11:32:38.889Z,4.20
2018-09-04T11:35:07.729Z,4.47
2018-09-04T11:37:36.583Z,4.23
2018-09-04T11:40:05.581Z,4.33
2018-09-04T11:42:34.363Z,4.13
2018-09-04T11:45:03.171Z,4.40
2018-09-04T11:47:32.012Z,3.50
2018-09-04T11:50:00.793Z,3.60
2018-09-04T11:52:29.719Z,3.80
2018-09-04T11:54:58.555Z,3.57
2018-09-04T11:57:27.439Z,4.10
2018-09-04T11:59:57.961Z,3.90
2018-09-04T12:02:58.659Z,3.80
2018-09-04T12:05:27.571Z,4.50
2018-09-04T12:07:56.511Z,4.50
2018-09-04T12:10:25.544Z,4.47
2018-09-04T12:12:54.464Z,4.13
2018-09-04T12:15:23.322Z,4.70
2018-09-04T12:17:52.131Z,4.50
2018-09-04T12:20:29.518Z,4.80
2018-09-04T12:22:58.748Z,4.50
2018-09-04T12:25:27.816Z,4.37
2018-09-04T12:27:56.627Z,4.50
2018-09-04T12:30:25.430Z,4.20
2018-09-04T12:32:54.247Z,4.27
2018-09-04T12:35:23.043Z,3.90
2018-09-04T12:37:51.946Z,4.30
2018-09-04T12:40:20.767Z,4.70
2018-09-04T12:42:49.763Z,4.60
2018-09-04T12:45:18.580Z,4.43
2018-09-04T12:47:47.404Z,4.87
2018-09-04T12:50:16.219Z,4.70
2018-09-04T12:52:45.288Z,4.70
2018-09-04T12:55:14.340Z,4.53
2018-09-04T13:00:35.603Z,4.30
2018-09-04T13:03:04.499Z,3.83
2018-09-04T13:05:33.452Z,3.70
2018-09-04T13:08:02.244Z,3.90
2018-09-04T13:10:31.035Z,4.03
2018-09-04T13:13:00.191Z,3.97
2018-09-04T13:15:29.111Z,3.47
2018-09-04T13:17:58.005Z,3.77
2018-09-04T13:20:26.807Z,4.03
2018-09-04T13:22:55.610Z,4.00
2018-09-04T13:25:24.555Z,3.43
2018-09-04T13:27:53.384Z,3.60
2018-09-04T13:30:22.399Z,3.80
2018-09-04T13:32:51.298Z,4.10
2018-09-04T13:35:23.443Z,4.00
2018-09-04T13:37:52.802Z,3.93
2018-09-04T13:40:22.048Z,3.80
2018-09-04T13:42:50.983Z,3.90
2018-09-04T13:45:19.895Z,3.70
2018-09-04T13:47:48.784Z,3.97
2018-09-04T13:50:17.606Z,3.70
2018-09-04T13:52:46.428Z,3.80
2018-09-04T13:55:15.272Z,3.80
2018-09-04T13:57:44.095Z,3.80
2018-09-04T14:00:14.011Z,3.97
2018-09-04T14:02:42.903Z,3.37
2018-09-04T14:05:11.799Z,3.80
2018-09-04T14:07:40.820Z,3.77
2018-09-04T14:10:09.771Z,3.53
2018-09-04T14:12:38.662Z,3.57
2018-09-04T14:15:07.655Z,3.63
2018-09-04T14:17:36.422Z,3.70
2018-09-04T14:20:05.335Z,3.67
2018-09-04T14:22:34.217Z,3.73
2018-09-04T14:25:03.013Z,3.77
2018-09-04T14:27:31.931Z,3.87
2018-09-04T14:30:16.242Z,3.90
2018-09-04T14:32:29.855Z,3.50
2018-09-04T14:34:59.290Z,3.40
2018-09-04T14:37:28.556Z,3.40
2018-09-04T14:40:07.104Z,3.47
2018-09-04T14:42:36.124Z,3.63
2018-09-04T14:45:06.164Z,3.67
2018-09-04T14:47:36.440Z,3.60
2018-09-04T14:50:05.602Z,3.67
2018-09-04T14:52:35.005Z,3.80
2018-09-04T14:55:03.875Z,3.47
2018-09-04T14:57:32.659Z,3.27
2018-09-04T15:00:01.510Z,3.50
2018-09-04T15:02:30.751Z,3.37
2018-09-04T15:04:59.555Z,3.47
2018-09-04T15:07:28.347Z,3.70
2018-09-04T15:09:57.159Z,3.47
2018-09-04T15:12:25.947Z,3.60
2018-09-04T15:14:54.819Z,3.70
2018-09-04T15:17:23.612Z,3.57
2018-09-04T15:19:52.900Z,3.97
2018-09-04T15:22:21.733Z,3.53
2018-09-04T15:24:50.592Z,4.00
2018-09-04T15:27:19.396Z,4.67
2018-09-04T15:29:48.415Z,3.00
2018-09-04T15:32:17.219Z,3.57
2018-09-04T15:34:46.064Z,3.73
2018-09-04T15:37:14.868Z,3.50
2018-09-04T15:39:43.757Z,3.73
2018-09-04T15:42:12.582Z,3.03
2018-09-04T15:44:41.438Z,3.30
2018-09-04T15:47:10.264Z,3.20
2018-09-04T15:49:45.143Z,3.20
2018-09-04T15:52:15.103Z,3.50
2018-09-04T15:54:43.913Z,3.80
2018-09-04T15:57:12.983Z,3.60
2018-09-04T15:59:41.779Z,3.93
2018-09-04T16:02:10.614Z,3.77
2018-09-04T16:04:39.642Z,3.97
2018-09-04T16:07:08.462Z,3.80
2018-09-04T16:09:37.284Z,3.43
2018-09-04T16:12:06.104Z,3.30
2018-09-04T16:14:34.927Z,3.33
2018-09-04T16:17:03.787Z,3.07
2018-09-04T16:19:32.602Z,3.60
2018-09-04T16:22:01.404Z,3.77
2018-09-04T16:24:30.411Z,3.37
2018-09-04T16:26:59.258Z,3.07
2018-09-04T16:29:28.074Z,3.47
2018-09-04T16:31:57.327Z,3.40
2018-09-04T16:34:26.291Z,3.80
2018-09-04T16:36:55.113Z,3.10
2018-09-04T16:39:24.015Z,3.20
2018-09-04T16:44:42.443Z,3.50
2018-09-04T16:47:11.384Z,3.57
2018-09-04T16:49:40.243Z,3.27
2018-09-04T16:52:10.110Z,3.43
2018-09-04T16:54:39.076Z,2.93
2018-09-04T16:57:07.990Z,3.27
2018-09-04T16:59:37.143Z,3.63
2018-09-04T17:02:06.187Z,3.30
2018-09-04T17:04:35.318Z,2.70
2018-09-04T17:07:04.983Z,3.00
2018-09-04T17:09:35.275Z,2.80
2018-09-04T17:12:04.317Z,2.60
2018-09-04T17:14:34.448Z,3.00
2018-09-04T17:17:08.380Z,2.63
2018-09-04T17:22:19.571Z,2.10
2018-09-04T17:25:01.963Z,2.30
2018-09-04T17:27:31.019Z,2.12
2018-09-04T17:30:00.980Z,1.80
2018-09-04T17:32:30.510Z,1.70
2018-09-04T17:34:59.731Z,1.90
2018-09-04T17:37:28.807Z,1.60
2018-09-04T17:39:57.861Z,2.33
2018-09-04T17:42:26.788Z,2.50
2018-09-04T17:44:55.762Z,2.50
2018-09-04T17:47:24.787Z,2.07
2018-09-04T17:49:53.647Z,2.30
2018-09-04T17:52:22.799Z,2.23
2018-09-04T17:54:51.792Z,2.60
2018-09-04T17:57:20.632Z,2.43
2018-09-04T17:59:49.494Z,2.17
2018-09-04T18:02:18.356Z,2.70
2018-09-04T18:04:47.219Z,2.53
2018-09-04T18:07:16.123Z,2.30
2018-09-04T18:09:44.939Z,2.53
2018-09-04T18:12:13.834Z,2.20
2018-09-04T18:14:42.741Z,2.90
2018-09-04T18:17:11.707Z,2.67
2018-09-04T18:19:40.618Z,2.80
2018-09-04T18:22:09.480Z,2.73
2018-09-04T18:24:38.399Z,2.53
2018-09-04T18:27:07.363Z,2.50
2018-09-04T18:29:36.171Z,2.50
2018-09-04T18:32:05.340Z,2.60
2018-09-04T18:34:34.361Z,2.90
2018-09-04T18:37:03.181Z,2.80
2018-09-04T18:39:31.987Z,3.03
2018-09-04T18:42:00.866Z,2.60
2018-09-04T18:44:29.714Z,2.70
2018-09-04T18:46:58.754Z,2.93
2018-09-04T18:49:27.698Z,2.83
2018-09-04T18:51:56.435Z,2.97
2018-09-04T18:54:25.383Z,2.67
2018-09-04T18:56:54.248Z,2.60
2018-09-04T18:59:23.083Z,2.93
2018-09-04T19:01:51.940Z,2.73
2018-09-04T19:04:20.790Z,2.90
2018-09-04T19:06:49.649Z,2.67
2018-09-04T19:09:18.636Z,2.83
2018-09-04T19:11:47.496Z,2.33
2018-09-04T19:14:16.455Z,2.90
2018-09-04T19:16:45.257Z,2.77
2018-09-04T19:19:14.102Z,2.60
2018-09-04T19:21:42.923Z,2.60
2018-09-04T19:24:11.863Z,3.00
2018-09-04T19:26:40.689Z,3.27
2018-09-04T19:29:09.787Z,2.40
2018-09-04T19:31:38.624Z,2.70
2018-09-04T19:34:07.416Z,2.67
2018-09-04T19:36:36.399Z,2.60
2018-09-04T19:39:06.654Z,2.73
2018-09-04T19:41:35.563Z,2.70
2018-09-04T19:44:04.691Z,3.20
2018-09-04T19:46:33.599Z,2.93
2018-09-04T19:49:02.468Z,2.90
2018-09-04T19:51:31.343Z,2.90
2018-09-04T19:54:00.170Z,2.67
2018-09-04T19:56:29.096Z,2.93
2018-09-04T19:58:58.027Z,3.53
2018-09-04T20:01:26.850Z,2.90
2018-09-04T20:03:55.667Z,3.07
2018-09-04T20:06:24.586Z,3.10
2018-09-04T20:08:53.439Z,2.97
2018-09-04T20:11:22.700Z,3.07
2018-09-04T20:13:51.935Z,3.13
2018-09-04T20:16:20.779Z,3.37
2018-09-04T20:18:49.694Z,3.50
2018-09-04T20:21:18.522Z,3.37
2018-09-04T20:23:47.498Z,3.63
2018-09-04T20:26:16.483Z,3.77
2018-09-04T20:28:45.402Z,3.87
2018-09-04T20:31:14.213Z,3.50
2018-09-04T20:33:43.007Z,3.90
2018-09-04T20:36:11.804Z,3.50
2018-09-04T20:38:40.768Z,3.27
2018-09-04T20:41:09.592Z,4.13
2018-09-04T20:43:38.374Z,3.57
2018-09-04T20:46:07.263Z,3.50
2018-09-04T20:48:36.078Z,3.27
2018-09-04T20:51:05.143Z,3.50
2018-09-04T20:53:34.022Z,3.47
2018-09-04T20:56:02.872Z,3.63
2018-09-04T20:58:42.667Z,3.50
2018-09-04T21:01:22.314Z,3.67
2018-09-04T21:04:02.226Z,3.50
2018-09-04T21:06:42.316Z,3.10
2018-09-04T21:09:21.079Z,2.93
2018-09-04T21:11:50.050Z,3.13
2018-09-04T21:14:18.882Z,3.03
2018-09-04T21:16:47.750Z,2.90
2018-09-04T21:19:16.568Z,3.70
2018-09-04T21:21:45.410Z,3.53
2018-09-04T21:24:14.251Z,3.60
2018-09-04T21:26:43.103Z,3.20
2018-09-04T21:29:11.959Z,3.73
2018-09-04T21:31:41.222Z,3.60
2018-09-04T21:34:10.063Z,3.40
2018-09-04T21:36:38.864Z,3.57
2018-09-04T21:39:08.719Z,3.30
2018-09-04T21:41:37.547Z,3.77
2018-09-04T21:44:06.479Z,3.47
2018-09-04T21:46:35.343Z,4.00
2018-09-04T21:49:04.215Z,3.90
2018-09-04T21:51:33.052Z,4.10
2018-09-04T21:54:01.915Z,3.53
2018-09-04T21:56:30.799Z,3.50
2018-09-04T21:58:59.600Z,3.57
2018-09-04T22:01:28.439Z,3.97
2018-09-04T22:03:57.258Z,4.10
2018-09-04T22:06:26.110Z,4.03
2018-09-04T22:08:54.998Z,3.07
2018-09-04T22:11:23.782Z,4.20
2018-09-04T22:13:52.710Z,3.47
2018-09-04T22:16:21.522Z,3.50
2018-09-04T22:18:50.350Z,3.30
2018-09-04T22:21:19.158Z,3.43
2018-09-04T22:23:47.966Z,3.67
2018-09-04T22:26:16.811Z,3.23
2018-09-04T22:28:45.653Z,3.40
2018-09-04T22:31:14.458Z,4.10
2018-09-04T22:33:43.328Z,3.90
2018-09-04T22:36:12.166Z,3.70
2018-09-04T22:38:40.972Z,3.97
2018-09-04T22:41:10.235Z,3.70
2018-09-04T22:43:39.186Z,3.63
2018-09-04T22:46:08.265Z,3.80
2018-09-04T22:48:37.156Z,3.50
2018-09-04T22:51:11.296Z,4.00
2018-09-04T22:53:40.112Z,4.17
2018-09-04T22:56:08.946Z,3.70
2018-09-04T22:58:37.811Z,4.13
2018-09-04T23:01:06.746Z,3.87
2018-09-04T23:03:35.582Z,3.93
2018-09-04T23:06:04.473Z,3.80
2018-09-04T23:08:33.302Z,4.60
2018-09-04T23:11:02.130Z,4.03
2018-09-04T23:13:30.924Z,4.17
2018-09-04T23:16:00.056Z,4.03
2018-09-04T23:18:28.875Z,4.00
2018-09-04T23:20:57.822Z,4.20
2018-09-04T23:23:26.638Z,4.07
2018-09-04T23:25:55.438Z,3.93
2018-09-04T23:28:24.247Z,3.80
2018-09-04T23:30:53.074Z,4.17
2018-09-04T23:33:21.867Z,4.40
2018-09-04T23:35:50.650Z,5.00
2018-09-04T23:38:22.455Z,4.70
2018-09-04T23:40:52.023Z,4.40
2018-09-04T23:43:20.934Z,4.17
2018-09-04T23:45:49.774Z,4.33
2018-09-04T23:48:18.619Z,4.47
2018-09-04T23:50:47.557Z,4.07
2018-09-04T23:53:16.382Z,4.23
2018-09-04T23:55:45.314Z,3.93
2018-09-04T23:58:14.162Z,3.93
